sensor_id;sensor_type;location;lat;lon;timestamp;temperature;humidity
1355;DHT22;671;48.972;9.276;2024-03-25T00:00:37;7.30;99.90
1355;DHT22;671;48.972;9.276;2024-03-25T00:03:04;7.30;99.90
1355;DHT22;671;48.972;9.276;2024-03-25T00:05:30;7.30;99.90
1355;DHT22;671;48.972;9.276;2024-03-25T00:07:58;7.30;99.90
1355;DHT22;671;48.972;9.276;2024-03-25T00:10:25;7.30;99.90
1355;DHT22;671;48.972;9.276;2024-03-25T00:12:51;7.20;99.90
1355;DHT22;671;48.972;9.276;2024-03-25T00:15:22;7.20;99.90
1355;DHT22;671;48.972;9.276;2024-03-25T00:17:52;7.20;99.90
1355;DHT22;671;48.972;9.276;2024-03-25T00:20:18;7.20;99.90
1355;DHT22;671;48.972;9.276;2024-03-25T00:22:45;7.20;99.90
1355;DHT22;671;48.972;9.276;2024-03-25T00:25:11;7.30;99.90
1355;DHT22;671;48.972;9.276;2024-03-25T00:27:38;7.30;99.90
1355;DHT22;671;48.972;9.276;2024-03-25T00:30:05;7.20;99.90
1355;DHT22;671;48.972;9.276;2024-03-25T00:32:31;7.30;99.90
1355;DHT22;671;48.972;9.276;2024-03-25T00:34:58;7.20;99.90
1355;DHT22;671;48.972;9.276;2024-03-25T00:37:24;7.20;99.90
1355;DHT22;671;48.972;9.276;2024-03-25T00:39:51;7.20;99.90
1355;DHT22;671;48.972;9.276;2024-03-25T00:42:17;7.20;99.90
1355;DHT22;671;48.972;9.276;2024-03-25T00:44:43;7.20;99.90
1355;DHT22;671;48.972;9.276;2024-03-25T00:47:10;7.20;99.90
1355;DHT22;671;48.972;9.276;2024-03-25T00:49:37;7.20;99.90
1355;DHT22;671;48.972;9.276;2024-03-25T00:52:03;7.20;99.90
1355;DHT22;671;48.972;9.276;2024-03-25T00:54:30;7.30;99.90
1355;DHT22;671;48.972;9.276;2024-03-25T00:56:56;7.20;99.90
1355;DHT22;671;48.972;9.276;2024-03-25T00:59:23;7.20;99.90
1355;DHT22;671;48.972;9.276;2024-03-25T01:01:49;7.20;99.90
1355;DHT22;671;48.972;9.276;2024-03-25T01:04:16;7.20;99.90
1355;DHT22;671;48.972;9.276;2024-03-25T01:06:43;7.20;99.90
1355;DHT22;671;48.972;9.276;2024-03-25T01:09:09;7.20;99.90
1355;DHT22;671;48.972;9.276;2024-03-25T01:11:36;7.20;99.90
1355;DHT22;671;48.972;9.276;2024-03-25T01:14:02;7.20;99.90
1355;DHT22;671;48.972;9.276;2024-03-25T01:16:29;7.20;99.90
1355;DHT22;671;48.972;9.276;2024-03-25T01:18:55;7.10;99.90
1355;DHT22;671;48.972;9.276;2024-03-25T01:21:22;7.20;99.90
1355;DHT22;671;48.972;9.276;2024-03-25T01:23:48;7.20;99.90
1355;DHT22;671;48.972;9.276;2024-03-25T01:26:14;7.20;99.90
1355;DHT22;671;48.972;9.276;2024-03-25T01:28:41;7.20;99.90
1355;DHT22;671;48.972;9.276;2024-03-25T01:31:07;7.20;99.90
1355;DHT22;671;48.972;9.276;2024-03-25T01:33:34;7.20;99.90
1355;DHT22;671;48.972;9.276;2024-03-25T01:36:01;7.20;99.90
1355;DHT22;671;48.972;9.276;2024-03-25T01:38:27;7.20;99.90
1355;DHT22;671;48.972;9.276;2024-03-25T01:40:54;7.20;99.90
1355;DHT22;671;48.972;9.276;2024-03-25T01:43:23;7.20;99.90
1355;DHT22;671;48.972;9.276;2024-03-25T01:45:51;7.20;99.90
1355;DHT22;671;48.972;9.276;2024-03-25T01:48:19;7.20;99.90
1355;DHT22;671;48.972;9.276;2024-03-25T01:50:46;7.20;99.90
1355;DHT22;671;48.972;9.276;2024-03-25T01:53:14;7.20;99.90
1355;DHT22;671;48.972;9.276;2024-03-25T01:55:41;7.20;99.90
1355;DHT22;671;48.972;9.276;2024-03-25T01:58:09;7.20;99.90
1355;DHT22;671;48.972;9.276;2024-03-25T02:00:35;7.20;99.90
1355;DHT22;671;48.972;9.276;2024-03-25T02:03:02;7.20;99.90
1355;DHT22;671;48.972;9.276;2024-03-25T02:05:28;7.20;99.90
1355;DHT22;671;48.972;9.276;2024-03-25T02:07:55;7.10;99.90
1355;DHT22;671;48.972;9.276;2024-03-25T02:10:22;7.10;99.90
1355;DHT22;671;48.972;9.276;2024-03-25T02:12:49;7.10;99.90
1355;DHT22;671;48.972;9.276;2024-03-25T02:15:15;7.00;99.90
1355;DHT22;671;48.972;9.276;2024-03-25T02:17:42;7.00;99.90
1355;DHT22;671;48.972;9.276;2024-03-25T02:20:09;7.00;99.90
1355;DHT22;671;48.972;9.276;2024-03-25T02:22:36;6.90;99.90
1355;DHT22;671;48.972;9.276;2024-03-25T02:25:06;7.00;99.90
1355;DHT22;671;48.972;9.276;2024-03-25T02:27:35;7.00;99.90
1355;DHT22;671;48.972;9.276;2024-03-25T02:30:06;7.00;99.90
1355;DHT22;671;48.972;9.276;2024-03-25T02:32:36;6.90;99.90
1355;DHT22;671;48.972;9.276;2024-03-25T02:35:05;6.90;99.90
1355;DHT22;671;48.972;9.276;2024-03-25T02:37:33;6.90;99.90
1355;DHT22;671;48.972;9.276;2024-03-25T02:40:01;6.90;99.90
1355;DHT22;671;48.972;9.276;2024-03-25T02:42:31;6.90;99.90
1355;DHT22;671;48.972;9.276;2024-03-25T02:44:58;6.90;99.90
1355;DHT22;671;48.972;9.276;2024-03-25T02:47:25;6.90;99.90
1355;DHT22;671;48.972;9.276;2024-03-25T02:49:51;6.90;99.90
1355;DHT22;671;48.972;9.276;2024-03-25T02:52:19;6.90;99.90
1355;DHT22;671;48.972;9.276;2024-03-25T02:54:45;6.90;99.90
1355;DHT22;671;48.972;9.276;2024-03-25T02:57:12;6.80;99.90
1355;DHT22;671;48.972;9.276;2024-03-25T02:59:38;6.90;99.90
1355;DHT22;671;48.972;9.276;2024-03-25T03:02:05;6.90;99.90
1355;DHT22;671;48.972;9.276;2024-03-25T03:04:31;6.80;99.90
1355;DHT22;671;48.972;9.276;2024-03-25T03:06:58;6.80;99.90
1355;DHT22;671;48.972;9.276;2024-03-25T03:09:24;6.80;99.90
1355;DHT22;671;48.972;9.276;2024-03-25T03:11:51;6.80;99.90
1355;DHT22;671;48.972;9.276;2024-03-25T03:14:17;6.80;99.90
1355;DHT22;671;48.972;9.276;2024-03-25T03:16:43;6.80;99.90
1355;DHT22;671;48.972;9.276;2024-03-25T03:19:10;6.70;99.90
1355;DHT22;671;48.972;9.276;2024-03-25T03:21:36;6.80;99.90
1355;DHT22;671;48.972;9.276;2024-03-25T03:24:04;6.70;99.90
1355;DHT22;671;48.972;9.276;2024-03-25T03:26:31;6.70;99.90
1355;DHT22;671;48.972;9.276;2024-03-25T03:28:57;6.70;99.90
1355;DHT22;671;48.972;9.276;2024-03-25T03:31:25;6.70;99.90
1355;DHT22;671;48.972;9.276;2024-03-25T03:33:52;6.70;99.90
1355;DHT22;671;48.972;9.276;2024-03-25T03:36:22;6.60;99.90
1355;DHT22;671;48.972;9.276;2024-03-25T03:38:52;6.60;99.90
1355;DHT22;671;48.972;9.276;2024-03-25T03:41:19;6.60;99.90
1355;DHT22;671;48.972;9.276;2024-03-25T03:43:46;6.60;99.90
1355;DHT22;671;48.972;9.276;2024-03-25T03:46:13;6.60;99.90
1355;DHT22;671;48.972;9.276;2024-03-25T03:48:39;6.50;99.90
1355;DHT22;671;48.972;9.276;2024-03-25T03:51:06;6.50;99.90
1355;DHT22;671;48.972;9.276;2024-03-25T03:53:33;6.50;99.90
1355;DHT22;671;48.972;9.276;2024-03-25T03:56:02;6.50;99.90
1355;DHT22;671;48.972;9.276;2024-03-25T03:58:30;6.50;99.90
1355;DHT22;671;48.972;9.276;2024-03-25T04:00:57;6.40;99.90
1355;DHT22;671;48.972;9.276;2024-03-25T04:03:23;6.40;99.90
1355;DHT22;671;48.972;9.276;2024-03-25T04:05:50;6.40;99.90
1355;DHT22;671;48.972;9.276;2024-03-25T04:08:16;6.40;99.90
1355;DHT22;671;48.972;9.276;2024-03-25T04:10:45;6.30;99.90
1355;DHT22;671;48.972;9.276;2024-03-25T04:13:12;6.30;99.90
1355;DHT22;671;48.972;9.276;2024-03-25T04:15:40;6.30;99.90
1355;DHT22;671;48.972;9.276;2024-03-25T04:18:07;6.30;99.90
1355;DHT22;671;48.972;9.276;2024-03-25T04:20:41;6.20;99.90
1355;DHT22;671;48.972;9.276;2024-03-25T04:23:07;6.20;99.90
1355;DHT22;671;48.972;9.276;2024-03-25T04:25:35;6.20;99.90
1355;DHT22;671;48.972;9.276;2024-03-25T04:28:04;6.20;99.90
1355;DHT22;671;48.972;9.276;2024-03-25T04:30:32;6.20;99.90
1355;DHT22;671;48.972;9.276;2024-03-25T04:33:00;6.20;99.90
1355;DHT22;671;48.972;9.276;2024-03-25T04:35:27;6.20;99.90
1355;DHT22;671;48.972;9.276;2024-03-25T04:37:53;6.20;99.90
1355;DHT22;671;48.972;9.276;2024-03-25T04:40:23;6.20;99.90
1355;DHT22;671;48.972;9.276;2024-03-25T04:42:49;6.20;99.90
1355;DHT22;671;48.972;9.276;2024-03-25T04:45:16;6.10;99.90
1355;DHT22;671;48.972;9.276;2024-03-25T04:47:42;6.10;99.90
1355;DHT22;671;48.972;9.276;2024-03-25T04:50:09;6.00;99.90
1355;DHT22;671;48.972;9.276;2024-03-25T04:52:36;6.00;99.90
1355;DHT22;671;48.972;9.276;2024-03-25T04:55:02;5.90;99.90
1355;DHT22;671;48.972;9.276;2024-03-25T04:57:29;5.90;99.90
1355;DHT22;671;48.972;9.276;2024-03-25T04:59:55;5.80;99.90
1355;DHT22;671;48.972;9.276;2024-03-25T05:02:22;5.70;99.90
1355;DHT22;671;48.972;9.276;2024-03-25T05:04:48;5.70;99.90
1355;DHT22;671;48.972;9.276;2024-03-25T05:07:14;5.60;99.90
1355;DHT22;671;48.972;9.276;2024-03-25T05:09:41;5.60;99.90
1355;DHT22;671;48.972;9.276;2024-03-25T05:12:08;5.50;99.90
1355;DHT22;671;48.972;9.276;2024-03-25T05:14:34;5.40;99.90
1355;DHT22;671;48.972;9.276;2024-03-25T05:17:01;5.40;99.90
1355;DHT22;671;48.972;9.276;2024-03-25T05:19:29;5.40;99.90
1355;DHT22;671;48.972;9.276;2024-03-25T05:21:57;5.30;99.90
1355;DHT22;671;48.972;9.276;2024-03-25T05:24:23;5.30;99.90
1355;DHT22;671;48.972;9.276;2024-03-25T05:26:50;5.30;99.90
1355;DHT22;671;48.972;9.276;2024-03-25T05:29:16;5.20;99.90
1355;DHT22;671;48.972;9.276;2024-03-25T05:32:01;5.20;99.90
1355;DHT22;671;48.972;9.276;2024-03-25T05:34:29;5.20;99.90
1355;DHT22;671;48.972;9.276;2024-03-25T05:36:55;5.20;99.90
1355;DHT22;671;48.972;9.276;2024-03-25T05:39:22;5.20;99.90
1355;DHT22;671;48.972;9.276;2024-03-25T05:41:48;5.20;99.90
1355;DHT22;671;48.972;9.276;2024-03-25T05:44:15;5.20;99.90
1355;DHT22;671;48.972;9.276;2024-03-25T05:46:41;5.20;99.90
1355;DHT22;671;48.972;9.276;2024-03-25T05:49:08;5.30;99.90
1355;DHT22;671;48.972;9.276;2024-03-25T05:51:34;5.40;99.90
1355;DHT22;671;48.972;9.276;2024-03-25T05:54:01;5.60;99.90
1355;DHT22;671;48.972;9.276;2024-03-25T05:56:28;5.70;99.90
1355;DHT22;671;48.972;9.276;2024-03-25T05:58:57;5.80;99.90
1355;DHT22;671;48.972;9.276;2024-03-25T06:01:24;5.80;99.90
1355;DHT22;671;48.972;9.276;2024-03-25T06:03:51;5.80;99.90
1355;DHT22;671;48.972;9.276;2024-03-25T06:06:18;5.80;99.90
1355;DHT22;671;48.972;9.276;2024-03-25T06:08:44;5.80;99.90
1355;DHT22;671;48.972;9.276;2024-03-25T06:11:11;5.80;99.90
1355;DHT22;671;48.972;9.276;2024-03-25T06:13:37;5.80;99.90
1355;DHT22;671;48.972;9.276;2024-03-25T06:16:04;5.80;99.90
1355;DHT22;671;48.972;9.276;2024-03-25T06:18:30;5.80;99.90
1355;DHT22;671;48.972;9.276;2024-03-25T06:20:57;5.80;99.90
1355;DHT22;671;48.972;9.276;2024-03-25T06:23:25;5.80;99.90
1355;DHT22;671;48.972;9.276;2024-03-25T06:25:52;5.80;99.90
1355;DHT22;671;48.972;9.276;2024-03-25T06:28:20;5.80;99.90
1355;DHT22;671;48.972;9.276;2024-03-25T06:30:47;5.80;99.90
1355;DHT22;671;48.972;9.276;2024-03-25T06:33:32;5.80;99.90
1355;DHT22;671;48.972;9.276;2024-03-25T06:36:18;5.90;99.90
1355;DHT22;671;48.972;9.276;2024-03-25T06:38:44;5.90;99.90
1355;DHT22;671;48.972;9.276;2024-03-25T06:41:11;5.90;99.90
1355;DHT22;671;48.972;9.276;2024-03-25T06:43:37;5.90;99.90
1355;DHT22;671;48.972;9.276;2024-03-25T06:46:05;5.90;99.90
1355;DHT22;671;48.972;9.276;2024-03-25T06:48:32;5.90;99.90
1355;DHT22;671;48.972;9.276;2024-03-25T06:50:59;5.90;99.90
1355;DHT22;671;48.972;9.276;2024-03-25T06:53:26;6.00;99.90
1355;DHT22;671;48.972;9.276;2024-03-25T06:55:56;6.10;99.90
1355;DHT22;671;48.972;9.276;2024-03-25T06:58:25;6.10;99.90
1355;DHT22;671;48.972;9.276;2024-03-25T07:00:52;6.20;99.90
1355;DHT22;671;48.972;9.276;2024-03-25T07:03:20;6.30;99.90
1355;DHT22;671;48.972;9.276;2024-03-25T07:05:47;6.30;99.90
1355;DHT22;671;48.972;9.276;2024-03-25T07:08:15;6.40;99.90
1355;DHT22;671;48.972;9.276;2024-03-25T07:10:42;6.50;99.90
1355;DHT22;671;48.972;9.276;2024-03-25T07:13:08;6.50;99.90
1355;DHT22;671;48.972;9.276;2024-03-25T07:15:35;6.60;99.90
1355;DHT22;671;48.972;9.276;2024-03-25T07:18:02;6.80;99.90
1355;DHT22;671;48.972;9.276;2024-03-25T07:20:30;6.90;99.90
1355;DHT22;671;48.972;9.276;2024-03-25T07:22:56;7.00;99.90
1355;DHT22;671;48.972;9.276;2024-03-25T07:25:24;7.10;99.90
1355;DHT22;671;48.972;9.276;2024-03-25T07:27:51;7.10;99.90
1355;DHT22;671;48.972;9.276;2024-03-25T07:30:19;7.20;99.90
1355;DHT22;671;48.972;9.276;2024-03-25T07:32:45;7.20;99.90
1355;DHT22;671;48.972;9.276;2024-03-25T07:35:12;7.30;99.90
1355;DHT22;671;48.972;9.276;2024-03-25T07:37:38;7.30;99.90
1355;DHT22;671;48.972;9.276;2024-03-25T07:40:05;7.40;99.90
1355;DHT22;671;48.972;9.276;2024-03-25T07:42:32;7.50;99.90
1355;DHT22;671;48.972;9.276;2024-03-25T07:44:58;7.70;99.90
1355;DHT22;671;48.972;9.276;2024-03-25T07:47:26;7.80;99.90
1355;DHT22;671;48.972;9.276;2024-03-25T07:49:52;7.90;99.90
1355;DHT22;671;48.972;9.276;2024-03-25T07:52:19;8.00;99.90
1355;DHT22;671;48.972;9.276;2024-03-25T07:54:45;8.10;99.90
1355;DHT22;671;48.972;9.276;2024-03-25T07:57:12;8.30;99.90
1355;DHT22;671;48.972;9.276;2024-03-25T07:59:38;8.20;99.90
1355;DHT22;671;48.972;9.276;2024-03-25T08:02:05;8.30;99.90
1355;DHT22;671;48.972;9.276;2024-03-25T08:04:31;8.30;99.90
1355;DHT22;671;48.972;9.276;2024-03-25T08:06:58;8.30;99.90
1355;DHT22;671;48.972;9.276;2024-03-25T08:09:24;8.50;99.90
1355;DHT22;671;48.972;9.276;2024-03-25T08:11:51;8.70;99.90
1355;DHT22;671;48.972;9.276;2024-03-25T08:14:17;8.90;99.90
1355;DHT22;671;48.972;9.276;2024-03-25T08:16:44;9.00;99.90
1355;DHT22;671;48.972;9.276;2024-03-25T08:19:10;9.00;99.90
1355;DHT22;671;48.972;9.276;2024-03-25T08:21:36;9.20;99.90
1355;DHT22;671;48.972;9.276;2024-03-25T08:24:03;9.30;99.90
1355;DHT22;671;48.972;9.276;2024-03-25T08:26:30;9.40;99.90
1355;DHT22;671;48.972;9.276;2024-03-25T08:28:56;9.30;99.90
1355;DHT22;671;48.972;9.276;2024-03-25T08:31:23;9.40;99.90
1355;DHT22;671;48.972;9.276;2024-03-25T08:33:50;9.40;99.90
1355;DHT22;671;48.972;9.276;2024-03-25T08:36:17;9.40;99.90
1355;DHT22;671;48.972;9.276;2024-03-25T08:38:44;9.40;99.90
1355;DHT22;671;48.972;9.276;2024-03-25T08:41:11;9.50;99.90
1355;DHT22;671;48.972;9.276;2024-03-25T08:43:37;9.60;99.90
1355;DHT22;671;48.972;9.276;2024-03-25T08:46:04;9.60;99.90
1355;DHT22;671;48.972;9.276;2024-03-25T08:48:30;9.60;99.90
1355;DHT22;671;48.972;9.276;2024-03-25T08:50:57;9.60;99.90
1355;DHT22;671;48.972;9.276;2024-03-25T08:53:23;9.70;99.90
1355;DHT22;671;48.972;9.276;2024-03-25T08:55:50;9.70;99.90
1355;DHT22;671;48.972;9.276;2024-03-25T08:58:16;9.70;99.90
1355;DHT22;671;48.972;9.276;2024-03-25T09:00:43;9.70;99.90
1355;DHT22;671;48.972;9.276;2024-03-25T09:03:09;9.80;99.90
1355;DHT22;671;48.972;9.276;2024-03-25T09:05:37;9.90;99.90
1355;DHT22;671;48.972;9.276;2024-03-25T09:08:06;10.00;99.90
1355;DHT22;671;48.972;9.276;2024-03-25T09:10:33;10.10;99.90
1355;DHT22;671;48.972;9.276;2024-03-25T09:13:18;10.10;99.90
1355;DHT22;671;48.972;9.276;2024-03-25T09:15:44;10.20;99.90
1355;DHT22;671;48.972;9.276;2024-03-25T09:18:11;10.20;99.90
1355;DHT22;671;48.972;9.276;2024-03-25T09:20:37;10.20;99.90
1355;DHT22;671;48.972;9.276;2024-03-25T09:23:04;10.20;99.90
1355;DHT22;671;48.972;9.276;2024-03-25T09:25:30;10.20;99.90
1355;DHT22;671;48.972;9.276;2024-03-25T09:27:56;10.30;99.90
1355;DHT22;671;48.972;9.276;2024-03-25T09:30:23;10.40;99.90
1355;DHT22;671;48.972;9.276;2024-03-25T09:32:49;10.50;99.90
1355;DHT22;671;48.972;9.276;2024-03-25T09:35:16;10.60;99.90
1355;DHT22;671;48.972;9.276;2024-03-25T09:37:42;10.60;99.90
1355;DHT22;671;48.972;9.276;2024-03-25T09:40:09;10.60;99.90
1355;DHT22;671;48.972;9.276;2024-03-25T09:42:48;10.50;99.90
1355;DHT22;671;48.972;9.276;2024-03-25T09:45:18;10.50;99.90
1355;DHT22;671;48.972;9.276;2024-03-25T09:47:46;10.40;99.90
1355;DHT22;671;48.972;9.276;2024-03-25T09:50:13;10.30;99.90
1355;DHT22;671;48.972;9.276;2024-03-25T09:52:46;10.40;99.90
1355;DHT22;671;48.972;9.276;2024-03-25T09:55:12;10.60;99.90
1355;DHT22;671;48.972;9.276;2024-03-25T09:57:39;10.70;99.90
1355;DHT22;671;48.972;9.276;2024-03-25T10:00:09;10.90;99.90
1355;DHT22;671;48.972;9.276;2024-03-25T10:02:41;10.90;99.90
1355;DHT22;671;48.972;9.276;2024-03-25T10:05:08;11.00;99.90
1355;DHT22;671;48.972;9.276;2024-03-25T10:07:34;11.10;99.90
1355;DHT22;671;48.972;9.276;2024-03-25T10:10:08;11.30;99.90
1355;DHT22;671;48.972;9.276;2024-03-25T10:12:36;11.50;99.90
1355;DHT22;671;48.972;9.276;2024-03-25T10:15:03;11.50;99.90
1355;DHT22;671;48.972;9.276;2024-03-25T10:17:31;11.70;99.90
1355;DHT22;671;48.972;9.276;2024-03-25T10:19:57;11.80;99.90
1355;DHT22;671;48.972;9.276;2024-03-25T10:22:24;12.00;99.90
1355;DHT22;671;48.972;9.276;2024-03-25T10:24:50;12.10;99.90
1355;DHT22;671;48.972;9.276;2024-03-25T10:27:17;12.20;99.90
1355;DHT22;671;48.972;9.276;2024-03-25T10:29:47;12.30;99.90
1355;DHT22;671;48.972;9.276;2024-03-25T10:32:14;12.40;99.90
1355;DHT22;671;48.972;9.276;2024-03-25T10:34:40;12.60;99.90
1355;DHT22;671;48.972;9.276;2024-03-25T10:37:11;12.70;99.90
1355;DHT22;671;48.972;9.276;2024-03-25T10:39:48;12.80;99.90
1355;DHT22;671;48.972;9.276;2024-03-25T10:42:18;12.70;99.90
1355;DHT22;671;48.972;9.276;2024-03-25T10:44:45;12.60;99.90
1355;DHT22;671;48.972;9.276;2024-03-25T10:47:22;12.60;99.90
1355;DHT22;671;48.972;9.276;2024-03-25T10:49:55;12.60;99.90
1355;DHT22;671;48.972;9.276;2024-03-25T10:52:24;12.60;99.90
1355;DHT22;671;48.972;9.276;2024-03-25T10:54:50;12.60;99.90
1355;DHT22;671;48.972;9.276;2024-03-25T10:57:17;12.60;99.80
1355;DHT22;671;48.972;9.276;2024-03-25T10:59:45;12.60;99.40
1355;DHT22;671;48.972;9.276;2024-03-25T11:02:12;12.50;99.70
1355;DHT22;671;48.972;9.276;2024-03-25T11:04:39;12.50;99.90
1355;DHT22;671;48.972;9.276;2024-03-25T11:07:10;12.40;99.90
1355;DHT22;671;48.972;9.276;2024-03-25T11:09:39;12.40;99.50
1355;DHT22;671;48.972;9.276;2024-03-25T11:12:09;12.40;99.90
1355;DHT22;671;48.972;9.276;2024-03-25T11:14:36;12.30;99.60
1355;DHT22;671;48.972;9.276;2024-03-25T11:17:02;12.30;99.30
1355;DHT22;671;48.972;9.276;2024-03-25T11:19:29;12.50;99.90
1355;DHT22;671;48.972;9.276;2024-03-25T11:22:10;12.60;99.40
1355;DHT22;671;48.972;9.276;2024-03-25T11:24:37;12.70;99.90
1355;DHT22;671;48.972;9.276;2024-03-25T11:27:07;12.80;98.70
1355;DHT22;671;48.972;9.276;2024-03-25T11:29:34;12.80;98.40
1355;DHT22;671;48.972;9.276;2024-03-25T11:32:05;12.80;98.40
1355;DHT22;671;48.972;9.276;2024-03-25T11:34:32;12.90;97.90
1355;DHT22;671;48.972;9.276;2024-03-25T11:36:58;12.80;97.10
1355;DHT22;671;48.972;9.276;2024-03-25T11:39:25;12.70;97.70
1355;DHT22;671;48.972;9.276;2024-03-25T11:41:53;12.80;97.30
1355;DHT22;671;48.972;9.276;2024-03-25T11:44:19;12.80;97.30
1355;DHT22;671;48.972;9.276;2024-03-25T11:46:46;12.80;98.20
1355;DHT22;671;48.972;9.276;2024-03-25T11:49:14;12.90;97.90
1355;DHT22;671;48.972;9.276;2024-03-25T11:51:43;13.00;97.80
1355;DHT22;671;48.972;9.276;2024-03-25T11:54:11;13.10;97.00
1355;DHT22;671;48.972;9.276;2024-03-25T11:56:38;13.20;97.20
1355;DHT22;671;48.972;9.276;2024-03-25T11:59:05;13.20;96.50
1355;DHT22;671;48.972;9.276;2024-03-25T12:01:32;13.30;96.70
1355;DHT22;671;48.972;9.276;2024-03-25T12:04:10;13.20;96.10
1355;DHT22;671;48.972;9.276;2024-03-25T12:06:36;13.20;95.60
1355;DHT22;671;48.972;9.276;2024-03-25T12:09:03;13.20;95.60
1355;DHT22;671;48.972;9.276;2024-03-25T12:11:48;13.40;96.40
1355;DHT22;671;48.972;9.276;2024-03-25T12:14:14;13.40;96.00
1355;DHT22;671;48.972;9.276;2024-03-25T12:16:42;13.50;96.20
1355;DHT22;671;48.972;9.276;2024-03-25T12:19:09;13.60;96.00
1355;DHT22;671;48.972;9.276;2024-03-25T12:21:36;13.70;95.30
1355;DHT22;671;48.972;9.276;2024-03-25T12:24:04;13.80;95.40
1355;DHT22;671;48.972;9.276;2024-03-25T12:26:31;14.00;95.20
1355;DHT22;671;48.972;9.276;2024-03-25T12:28:58;14.20;95.70
1355;DHT22;671;48.972;9.276;2024-03-25T12:31:24;14.40;94.40
1355;DHT22;671;48.972;9.276;2024-03-25T12:33:51;14.40;94.50
1355;DHT22;671;48.972;9.276;2024-03-25T12:36:17;14.50;92.30
1355;DHT22;671;48.972;9.276;2024-03-25T12:38:54;14.50;92.50
1355;DHT22;671;48.972;9.276;2024-03-25T12:41:22;14.50;92.10
1355;DHT22;671;48.972;9.276;2024-03-25T12:43:50;14.60;93.20
1355;DHT22;671;48.972;9.276;2024-03-25T12:46:17;14.60;92.00
1355;DHT22;671;48.972;9.276;2024-03-25T12:48:44;14.70;93.20
1355;DHT22;671;48.972;9.276;2024-03-25T12:51:14;14.70;92.40
1355;DHT22;671;48.972;9.276;2024-03-25T12:53:41;14.70;94.40
1355;DHT22;671;48.972;9.276;2024-03-25T12:56:08;14.70;93.50
1355;DHT22;671;48.972;9.276;2024-03-25T12:58:34;14.70;92.60
1355;DHT22;671;48.972;9.276;2024-03-25T13:01:01;14.70;93.20
1355;DHT22;671;48.972;9.276;2024-03-25T13:03:27;14.70;93.10
1355;DHT22;671;48.972;9.276;2024-03-25T13:05:54;14.60;93.00
1355;DHT22;671;48.972;9.276;2024-03-25T13:08:23;14.50;93.00
1355;DHT22;671;48.972;9.276;2024-03-25T13:10:50;14.50;93.50
1355;DHT22;671;48.972;9.276;2024-03-25T13:13:16;14.40;93.00
1355;DHT22;671;48.972;9.276;2024-03-25T13:15:43;14.40;92.40
1355;DHT22;671;48.972;9.276;2024-03-25T13:18:09;14.20;92.20
1355;DHT22;671;48.972;9.276;2024-03-25T13:20:36;14.00;92.80
1355;DHT22;671;48.972;9.276;2024-03-25T13:23:02;13.90;92.50
1355;DHT22;671;48.972;9.276;2024-03-25T13:25:29;13.90;93.10
1355;DHT22;671;48.972;9.276;2024-03-25T13:27:55;13.90;92.60
1355;DHT22;671;48.972;9.276;2024-03-25T13:30:22;14.00;94.10
1355;DHT22;671;48.972;9.276;2024-03-25T13:32:52;14.00;93.70
1355;DHT22;671;48.972;9.276;2024-03-25T13:35:18;14.10;93.50
1355;DHT22;671;48.972;9.276;2024-03-25T13:37:45;13.90;92.90
1355;DHT22;671;48.972;9.276;2024-03-25T13:40:11;13.80;91.90
1355;DHT22;671;48.972;9.276;2024-03-25T13:42:38;13.70;92.20
1355;DHT22;671;48.972;9.276;2024-03-25T13:45:05;13.80;92.10
1355;DHT22;671;48.972;9.276;2024-03-25T13:47:31;13.80;92.70
1355;DHT22;671;48.972;9.276;2024-03-25T13:50:05;13.80;91.60
1355;DHT22;671;48.972;9.276;2024-03-25T13:52:35;13.90;92.70
1355;DHT22;671;48.972;9.276;2024-03-25T13:55:02;13.90;91.90
1355;DHT22;671;48.972;9.276;2024-03-25T13:57:29;13.80;91.70
1355;DHT22;671;48.972;9.276;2024-03-25T13:59:55;13.90;91.70
1355;DHT22;671;48.972;9.276;2024-03-25T14:02:23;13.90;91.60
1355;DHT22;671;48.972;9.276;2024-03-25T14:04:50;13.90;91.20
1355;DHT22;671;48.972;9.276;2024-03-25T14:07:16;14.00;91.40
1355;DHT22;671;48.972;9.276;2024-03-25T14:09:43;13.90;91.60
1355;DHT22;671;48.972;9.276;2024-03-25T14:12:10;14.10;91.80
1355;DHT22;671;48.972;9.276;2024-03-25T14:14:36;14.10;91.00
1355;DHT22;671;48.972;9.276;2024-03-25T14:17:03;14.10;90.20
1355;DHT22;671;48.972;9.276;2024-03-25T14:19:29;14.00;89.20
1355;DHT22;671;48.972;9.276;2024-03-25T14:21:56;14.00;90.00
1355;DHT22;671;48.972;9.276;2024-03-25T14:24:23;14.00;91.50
1355;DHT22;671;48.972;9.276;2024-03-25T14:26:50;14.00;91.20
1355;DHT22;671;48.972;9.276;2024-03-25T14:29:16;14.00;91.30
1355;DHT22;671;48.972;9.276;2024-03-25T14:31:42;14.00;91.70
1355;DHT22;671;48.972;9.276;2024-03-25T14:34:09;14.10;90.90
1355;DHT22;671;48.972;9.276;2024-03-25T14:36:35;14.10;90.30
1355;DHT22;671;48.972;9.276;2024-03-25T14:39:02;14.00;89.80
1355;DHT22;671;48.972;9.276;2024-03-25T14:41:39;14.00;91.00
1355;DHT22;671;48.972;9.276;2024-03-25T14:44:06;14.10;91.10
1355;DHT22;671;48.972;9.276;2024-03-25T14:46:32;14.10;89.50
1355;DHT22;671;48.972;9.276;2024-03-25T14:48:59;14.10;90.10
1355;DHT22;671;48.972;9.276;2024-03-25T14:51:25;14.00;89.50
1355;DHT22;671;48.972;9.276;2024-03-25T14:53:52;14.00;89.50
1355;DHT22;671;48.972;9.276;2024-03-25T14:56:18;13.90;90.10
1355;DHT22;671;48.972;9.276;2024-03-25T14:58:45;13.80;90.00
1355;DHT22;671;48.972;9.276;2024-03-25T15:01:11;13.80;90.10
1355;DHT22;671;48.972;9.276;2024-03-25T15:03:38;13.80;90.90
1355;DHT22;671;48.972;9.276;2024-03-25T15:06:05;13.80;90.80
1355;DHT22;671;48.972;9.276;2024-03-25T15:08:32;13.90;91.20
1355;DHT22;671;48.972;9.276;2024-03-25T15:10:58;13.90;90.90
1355;DHT22;671;48.972;9.276;2024-03-25T15:13:25;13.90;90.40
1355;DHT22;671;48.972;9.276;2024-03-25T15:15:51;13.90;90.10
1355;DHT22;671;48.972;9.276;2024-03-25T15:18:18;13.90;90.90
1355;DHT22;671;48.972;9.276;2024-03-25T15:20:44;13.90;90.50
1355;DHT22;671;48.972;9.276;2024-03-25T15:23:10;13.90;90.90
1355;DHT22;671;48.972;9.276;2024-03-25T15:25:37;13.90;90.00
1355;DHT22;671;48.972;9.276;2024-03-25T15:28:03;13.90;90.20
1355;DHT22;671;48.972;9.276;2024-03-25T15:30:31;14.00;90.50
1355;DHT22;671;48.972;9.276;2024-03-25T15:32:57;14.00;90.90
1355;DHT22;671;48.972;9.276;2024-03-25T15:35:24;14.00;90.60
1355;DHT22;671;48.972;9.276;2024-03-25T15:37:51;14.00;91.10
1355;DHT22;671;48.972;9.276;2024-03-25T15:40:18;14.00;90.60
1355;DHT22;671;48.972;9.276;2024-03-25T15:42:44;13.90;90.00
1355;DHT22;671;48.972;9.276;2024-03-25T15:45:11;13.90;90.60
1355;DHT22;671;48.972;9.276;2024-03-25T15:47:37;13.90;90.50
1355;DHT22;671;48.972;9.276;2024-03-25T15:50:05;13.90;90.10
1355;DHT22;671;48.972;9.276;2024-03-25T15:52:31;13.90;90.30
1355;DHT22;671;48.972;9.276;2024-03-25T15:54:58;13.80;88.90
1355;DHT22;671;48.972;9.276;2024-03-25T15:57:24;13.80;89.00
1355;DHT22;671;48.972;9.276;2024-03-25T15:59:51;13.80;91.20
1355;DHT22;671;48.972;9.276;2024-03-25T16:02:17;13.80;90.80
1355;DHT22;671;48.972;9.276;2024-03-25T16:04:44;13.70;91.10
1355;DHT22;671;48.972;9.276;2024-03-25T16:07:10;13.70;91.00
1355;DHT22;671;48.972;9.276;2024-03-25T16:09:37;13.70;90.80
1355;DHT22;671;48.972;9.276;2024-03-25T16:12:03;13.70;91.40
1355;DHT22;671;48.972;9.276;2024-03-25T16:14:33;13.60;91.30
1355;DHT22;671;48.972;9.276;2024-03-25T16:17:00;13.60;90.00
1355;DHT22;671;48.972;9.276;2024-03-25T16:19:26;13.50;90.10
1355;DHT22;671;48.972;9.276;2024-03-25T16:21:53;13.40;90.80
1355;DHT22;671;48.972;9.276;2024-03-25T16:24:20;13.40;91.50
1355;DHT22;671;48.972;9.276;2024-03-25T16:26:46;13.30;90.60